createdAt,value
2022-08-11T00:02:15.078Z,3.85
2022-08-11T00:04:46.949Z,3.97
2022-08-11T00:07:18.790Z,4.70
2022-08-11T00:09:50.804Z,4.25
2022-08-11T00:15:03.998Z,4.93
2022-08-11T00:20:16.505Z,6.30
2022-08-11T00:22:51.494Z,5.88
2022-08-11T00:25:23.626Z,5.57
2022-08-11T00:27:55.318Z,4.82
2022-08-11T00:30:27.026Z,5.47
2022-08-11T00:33:00.973Z,4.70
2022-08-11T00:35:56.047Z,4.57
2022-08-11T00:38:28.382Z,4.75
2022-08-11T00:41:13.306Z,4.35
2022-08-11T00:44:10.458Z,4.10
2022-08-11T00:46:47.864Z,4.70
2022-08-11T00:49:43.708Z,4.50
2022-08-11T00:52:48.464Z,5.43
2022-08-11T00:55:55.834Z,4.80
2022-08-11T00:59:01.926Z,4.20
2022-08-11T01:01:39.916Z,4.80
2022-08-11T01:04:29.700Z,4.57
2022-08-11T01:08:01.609Z,4.65
2022-08-11T01:10:30.596Z,4.20
2022-08-11T01:13:49.939Z,4.43
2022-08-11T01:17:16.159Z,4.75
2022-08-11T01:20:44.956Z,4.43
2022-08-11T01:23:12.550Z,4.07
2022-08-11T01:26:23.732Z,4.40
2022-08-11T01:28:55.117Z,4.63
2022-08-11T01:31:58.580Z,4.75
2022-08-11T01:34:29.844Z,4.40
2022-08-11T01:37:41.806Z,4.60
2022-08-11T01:40:16.164Z,4.53
2022-08-11T01:43:34.713Z,4.18
2022-08-11T01:46:44.120Z,4.28
2022-08-11T01:50:09.960Z,4.32
2022-08-11T01:52:50.599Z,4.57
2022-08-11T01:55:47.430Z,4.60
2022-08-11T01:58:50.662Z,4.28
2022-08-11T02:01:45.874Z,4.53
2022-08-11T02:04:26.798Z,4.50
2022-08-11T02:07:22.079Z,4.70
2022-08-11T02:10:50.444Z,4.95
2022-08-11T02:13:36.995Z,4.93
2022-08-11T02:16:43.001Z,5.47
2022-08-11T02:19:38.498Z,5.20
2022-08-11T02:22:34.561Z,5.95
2022-08-11T02:25:13.449Z,5.82
2022-08-11T02:28:45.082Z,6.40
2022-08-11T02:32:14.872Z,5.55
2022-08-11T02:35:44.184Z,5.35
2022-08-11T02:38:30.950Z,5.95
2022-08-11T02:41:27.495Z,5.80
2022-08-11T02:44:15.023Z,6.13
2022-08-11T02:46:53.799Z,5.45
2022-08-11T02:50:06.208Z,6.30
2022-08-11T02:53:02.389Z,6.25
2022-08-11T02:55:59.331Z,5.95
2022-08-11T02:58:40.892Z,6.25
2022-08-11T03:01:30.583Z,6.45
2022-08-11T03:04:20.213Z,6.15
2022-08-11T03:07:03.497Z,6.78
2022-08-11T03:09:40.757Z,6.07
2022-08-11T03:12:47.165Z,6.50
2022-08-11T03:15:48.719Z,6.68
2022-08-11T03:18:39.639Z,6.30
2022-08-11T03:22:01.882Z,6.65
2022-08-11T03:24:39.161Z,6.88
2022-08-11T03:27:39.379Z,6.60
2022-08-11T03:30:57.627Z,6.60
2022-08-11T03:34:07.206Z,7.15
2022-08-11T03:37:41.238Z,6.57
2022-08-11T03:40:42.557Z,6.60
2022-08-11T03:43:57.922Z,7.30
2022-08-11T03:47:04.574Z,7.13
2022-08-11T03:50:05.512Z,6.80
2022-08-11T03:52:44.446Z,7.07
2022-08-11T03:55:17.037Z,6.90
2022-08-11T03:58:23.072Z,7.90
2022-08-11T04:01:26.308Z,7.03
2022-08-11T04:04:10.822Z,7.43
2022-08-11T04:07:17.525Z,6.95
2022-08-11T04:09:59.903Z,7.20
2022-08-11T04:12:38.303Z,7.50
2022-08-11T04:15:34.660Z,6.93
2022-08-11T04:18:43.984Z,7.65
2022-08-11T04:21:37.851Z,8.32
2022-08-11T04:24:34.403Z,7.95
2022-08-11T04:27:40.247Z,6.75
2022-08-11T04:30:56.968Z,6.75
2022-08-11T04:33:43.763Z,7.18
2022-08-11T04:37:26.246Z,6.63
2022-08-11T04:40:26.224Z,6.83
2022-08-11T04:43:22.715Z,6.82
2022-08-11T04:46:22.877Z,5.90
2022-08-11T04:49:43.311Z,5.80
2022-08-11T04:52:58.311Z,5.88
2022-08-11T04:56:02.980Z,6.03
2022-08-11T04:59:18.102Z,5.97
2022-08-11T05:02:17.127Z,5.72
2022-08-11T05:05:36.898Z,5.45
2022-08-11T05:08:25.057Z,5.07
2022-08-11T05:11:28.010Z,5.25
2022-08-11T05:14:27.977Z,4.93
2022-08-11T05:17:32.135Z,4.93
2022-08-11T05:20:22.869Z,4.18
2022-08-11T05:23:15.352Z,4.15
2022-08-11T05:26:44.510Z,3.83
2022-08-11T05:29:23.074Z,3.97
2022-08-11T05:32:21.711Z,3.53
2022-08-11T05:34:56.398Z,3.38
2022-08-11T05:37:31.770Z,3.42
2022-08-11T05:40:35.956Z,3.40
2022-08-11T05:43:33.894Z,3.20
2022-08-11T05:46:27.748Z,3.55
2022-08-11T05:49:18.484Z,3.05
2022-08-11T05:52:12.699Z,3.13
2022-08-11T05:55:06.450Z,3.00
2022-08-11T05:57:51.244Z,2.60
2022-08-11T06:00:25.726Z,2.90
2022-08-11T06:03:02.707Z,3.13
2022-08-11T06:05:43.649Z,2.80
2022-08-11T06:08:17.792Z,3.23
2022-08-11T06:10:50.992Z,3.40
2022-08-11T06:13:26.384Z,4.53
2022-08-11T06:16:04.890Z,2.92
2022-08-11T06:18:39.789Z,2.90
2022-08-11T06:21:14.151Z,3.05
2022-08-11T06:23:47.538Z,2.85
2022-08-11T06:26:21.905Z,2.85
2022-08-11T06:29:00.041Z,2.83
2022-08-11T06:31:36.459Z,2.75
2022-08-11T06:34:27.360Z,3.05
2022-08-11T06:37:27.736Z,3.30
2022-08-11T06:40:26.114Z,3.45
2022-08-11T06:43:23.250Z,2.97
2022-08-11T06:46:10.174Z,3.15
2022-08-11T06:48:46.259Z,2.88
2022-08-11T06:51:19.210Z,3.17
2022-08-11T06:54:04.858Z,3.53
2022-08-11T06:57:28.491Z,3.70
2022-08-11T07:00:10.356Z,3.63
2022-08-11T07:02:51.183Z,3.80
2022-08-11T07:05:25.834Z,3.75
2022-08-11T07:08:35.969Z,3.50
2022-08-11T07:11:45.204Z,3.97
2022-08-11T07:14:43.680Z,3.95
2022-08-11T07:17:24.483Z,3.22
2022-08-11T07:20:19.089Z,3.47
2022-08-11T07:23:23.220Z,3.08
2022-08-11T07:26:27.655Z,3.58
2022-08-11T07:29:01.810Z,3.70
2022-08-11T07:31:39.099Z,3.30
2022-08-11T07:34:36.717Z,3.80
2022-08-11T07:37:21.278Z,3.70
2022-08-11T07:39:55.518Z,3.38
2022-08-11T07:42:38.813Z,3.47
2022-08-11T07:45:30.409Z,3.60
2022-08-11T07:48:22.064Z,3.70
2022-08-11T07:51:13.868Z,3.40
2022-08-11T07:53:57.964Z,3.47
2022-08-11T07:56:54.841Z,3.47
2022-08-11T08:03:03.992Z,3.25
2022-08-11T08:05:55.525Z,3.30
2022-08-11T08:08:47.252Z,3.17
2022-08-11T08:11:41.022Z,2.97
2022-08-11T08:14:32.718Z,2.80
2022-08-11T08:17:24.674Z,3.30
2022-08-11T08:19:58.006Z,2.95
2022-08-11T08:22:38.767Z,3.17
2022-08-11T08:25:21.802Z,2.65
2022-08-11T08:27:56.547Z,3.10
2022-08-11T08:30:49.206Z,3.03
2022-08-11T08:33:26.455Z,2.78
2022-08-11T08:36:17.726Z,2.97
2022-08-11T08:38:56.030Z,2.60
2022-08-11T08:41:34.509Z,2.95
2022-08-11T08:47:07.653Z,2.92
2022-08-11T08:49:50.419Z,2.40
2022-08-11T08:52:30.909Z,2.88
2022-08-11T08:55:09.764Z,3.17
2022-08-11T08:57:45.965Z,3.35
2022-08-11T09:00:23.028Z,2.95
2022-08-11T09:02:56.693Z,3.10
2022-08-11T09:05:30.786Z,3.50
2022-08-11T09:08:04.463Z,3.13
2022-08-11T09:10:38.413Z,3.30
2022-08-11T09:13:11.363Z,3.45
2022-08-11T09:15:44.580Z,2.95
2022-08-11T09:18:20.072Z,3.53
2022-08-11T09:20:53.010Z,3.22
2022-08-11T09:26:58.781Z,3.05
2022-08-11T09:29:33.771Z,3.60
2022-08-11T09:32:09.924Z,3.70
2022-08-11T09:34:43.611Z,3.35
2022-08-11T09:37:54.131Z,3.70
2022-08-11T09:40:31.484Z,3.47
2022-08-11T09:43:27.006Z,3.42
2022-08-11T09:46:02.091Z,3.83
2022-08-11T09:48:48.828Z,3.45
2022-08-11T09:51:24.410Z,3.50
2022-08-11T09:54:03.731Z,3.38
2022-08-11T09:56:55.363Z,3.67
2022-08-11T09:59:28.064Z,4.30
2022-08-11T10:02:04.324Z,3.90
2022-08-11T10:04:47.115Z,4.10
2022-08-11T10:07:22.923Z,4.03
2022-08-11T10:10:04.003Z,3.88
2022-08-11T10:12:43.822Z,3.78
2022-08-11T10:15:36.216Z,3.80
2022-08-11T10:18:34.192Z,4.28
2022-08-11T10:21:31.834Z,4.18
2022-08-11T10:24:24.250Z,4.00
2022-08-11T10:29:59.660Z,3.95
2022-08-11T10:32:58.817Z,7.05
2022-08-11T10:35:34.475Z,9.02
2022-08-11T10:38:09.917Z,10.75
2022-08-11T10:40:47.368Z,10.23
2022-08-11T10:44:02.716Z,10.75
2022-08-11T10:46:32.030Z,11.80
2022-08-11T10:49:05.005Z,11.32
2022-08-11T10:51:58.624Z,10.75
2022-08-11T10:54:50.169Z,11.20
2022-08-11T10:57:42.749Z,9.82
2022-08-11T11:00:37.623Z,10.13
2022-08-11T11:03:22.959Z,11.20
2022-08-11T11:06:27.721Z,11.15
2022-08-11T11:09:05.568Z,10.88
2022-08-11T11:12:24.037Z,9.60
2022-08-11T11:15:39.017Z,10.00
2022-08-11T11:18:37.283Z,9.40
2022-08-11T11:21:20.492Z,9.73
2022-08-11T11:24:15.301Z,9.60
2022-08-11T11:30:11.930Z,11.10
2022-08-11T11:33:23.573Z,12.63
2022-08-11T11:36:23.527Z,12.75
2022-08-11T11:41:49.831Z,11.55
2022-08-11T11:44:28.996Z,11.25
2022-08-11T11:47:04.998Z,10.27
2022-08-11T11:49:49.785Z,10.18
2022-08-11T11:52:30.342Z,11.35
2022-08-11T11:55:05.728Z,10.55
2022-08-11T11:58:02.865Z,10.57
2022-08-11T12:01:04.661Z,12.13
2022-08-11T12:03:42.295Z,11.43
2022-08-11T12:06:17.573Z,11.85
2022-08-11T12:08:52.778Z,11.95
2022-08-11T12:11:47.539Z,10.57
2022-08-11T12:14:23.915Z,11.55
2022-08-11T12:16:58.714Z,11.02
2022-08-11T12:19:35.889Z,10.40
2022-08-11T12:22:39.143Z,11.10
2022-08-11T12:25:31.600Z,10.05
2022-08-11T12:28:05.486Z,10.18
2022-08-11T12:30:50.811Z,9.52
2022-08-11T12:33:38.798Z,10.00
2022-08-11T12:36:20.464Z,10.32
2022-08-11T12:38:59.041Z,10.23
2022-08-11T12:41:58.411Z,10.20
2022-08-11T12:45:03.310Z,10.80
2022-08-11T12:48:47.814Z,9.23
2022-08-11T12:51:14.797Z,10.75
2022-08-11T12:54:04.332Z,10.57
2022-08-11T12:57:06.818Z,10.57
2022-08-11T13:00:05.135Z,10.40
2022-08-11T13:02:57.005Z,10.48
2022-08-11T13:05:38.898Z,9.70
2022-08-11T13:08:29.110Z,9.52
2022-08-11T13:11:22.900Z,8.57
2022-08-11T13:14:06.288Z,9.52
2022-08-11T13:17:03.176Z,9.70
2022-08-11T13:19:45.178Z,8.55
2022-08-11T13:22:24.699Z,8.70
2022-08-11T13:24:59.490Z,11.18
2022-08-11T13:30:53.507Z,11.70
2022-08-11T13:33:41.386Z,10.77
2022-08-11T13:36:26.380Z,10.85
2022-08-11T13:39:07.600Z,9.90
2022-08-11T13:41:45.642Z,9.15
2022-08-11T13:44:30.534Z,8.48
2022-08-11T13:50:16.207Z,7.88
2022-08-11T13:55:55.924Z,7.13
2022-08-11T13:58:40.687Z,8.05
2022-08-11T14:02:20.321Z,7.80
2022-08-11T14:04:29.110Z,8.07
2022-08-11T14:07:12.395Z,7.47
2022-08-11T14:09:56.583Z,7.65
2022-08-11T14:15:38.726Z,7.75
2022-08-11T14:18:39.948Z,7.57
2022-08-11T14:24:27.419Z,6.95
2022-08-11T14:29:58.042Z,7.13
2022-08-11T14:35:22.897Z,6.53
2022-08-11T14:37:57.829Z,6.05
2022-08-11T14:40:54.970Z,6.20
2022-08-11T14:44:13.339Z,6.03
2022-08-11T14:46:59.363Z,6.55
2022-08-11T14:52:15.092Z,6.63
2022-08-11T14:55:07.785Z,6.65
2022-08-11T14:57:55.615Z,5.65
2022-08-11T15:00:38.162Z,5.72
2022-08-11T15:03:14.281Z,5.03
2022-08-11T15:06:13.452Z,4.75
2022-08-11T15:08:59.076Z,5.10
2022-08-11T15:11:51.573Z,4.63
2022-08-11T15:17:16.286Z,4.78
2022-08-11T15:20:09.626Z,4.70
2022-08-11T15:23:01.515Z,4.63
2022-08-11T15:25:36.162Z,4.43
2022-08-11T15:28:28.003Z,4.15
2022-08-11T15:31:20.400Z,4.00
2022-08-11T15:34:16.435Z,4.57
2022-08-11T15:37:15.250Z,4.10
2022-08-11T15:40:31.153Z,4.15
2022-08-11T15:43:41.127Z,4.20
2022-08-11T15:46:25.018Z,4.60
2022-08-11T15:49:21.847Z,4.38
2022-08-11T15:52:10.998Z,5.10
2022-08-11T15:54:48.116Z,3.78
2022-08-11T15:57:41.268Z,4.22
2022-08-11T16:00:32.568Z,4.18
2022-08-11T16:03:25.975Z,4.35
2022-08-11T16:06:19.868Z,3.65
2022-08-11T16:09:01.224Z,3.60
2022-08-11T16:11:38.066Z,4.20
2022-08-11T16:14:30.840Z,4.07
2022-08-11T16:17:05.589Z,3.60
2022-08-11T16:19:39.547Z,3.38
2022-08-11T16:22:19.138Z,3.75
2022-08-11T16:26:38.799Z,3.85
2022-08-11T16:27:49.843Z,3.38
2022-08-11T16:30:23.871Z,4.10
2022-08-11T16:32:58.433Z,3.50
2022-08-11T16:35:50.493Z,3.45
2022-08-11T16:38:37.836Z,4.13
2022-08-11T16:41:13.408Z,3.60
2022-08-11T16:44:08.955Z,3.60
2022-08-11T16:46:59.983Z,3.70
2022-08-11T16:49:39.112Z,4.38
2022-08-11T16:52:14.896Z,3.78
2022-08-11T16:54:50.542Z,4.20
2022-08-11T16:57:45.283Z,3.78
2022-08-11T17:03:15.559Z,4.50
2022-08-11T17:06:13.180Z,4.00
2022-08-11T17:09:12.530Z,4.30
2022-08-11T17:12:09.497Z,4.57
2022-08-11T17:15:04.114Z,4.78
2022-08-11T17:17:40.908Z,4.93
2022-08-11T17:20:40.517Z,4.60
2022-08-11T17:23:29.361Z,4.20
2022-08-11T17:26:04.195Z,4.85
2022-08-11T17:28:38.116Z,4.47
2022-08-11T17:31:30.535Z,5.35
2022-08-11T17:34:22.945Z,5.00
2022-08-11T17:36:57.345Z,4.65
2022-08-11T17:39:33.559Z,4.70
2022-08-11T17:42:25.180Z,5.65
2022-08-11T17:45:18.372Z,4.83
2022-08-11T17:48:10.797Z,5.15
2022-08-11T17:50:44.231Z,5.43
2022-08-11T17:53:36.442Z,4.55
2022-08-11T17:56:28.535Z,5.00
2022-08-11T17:59:20.821Z,4.95
2022-08-11T18:01:57.498Z,4.80
2022-08-11T18:04:31.552Z,4.40
2022-08-11T18:07:04.204Z,4.82
2022-08-11T18:09:55.127Z,4.70
2022-08-11T18:12:46.059Z,4.55
2022-08-11T18:15:36.899Z,4.53
2022-08-11T18:18:27.233Z,4.03
2022-08-11T18:21:18.506Z,4.53
2022-08-11T18:24:11.274Z,4.22
2022-08-11T18:27:05.298Z,4.18
2022-08-11T18:30:00.927Z,4.85
2022-08-11T18:33:09.146Z,4.05
2022-08-11T18:36:10.447Z,4.40
2022-08-11T18:39:02.444Z,4.22
2022-08-11T18:41:57.852Z,4.25
2022-08-11T18:44:52.601Z,4.38
2022-08-11T18:47:45.847Z,4.72
2022-08-11T18:50:40.940Z,4.28
2022-08-11T18:53:37.688Z,4.22
2022-08-11T18:56:28.673Z,4.00
2022-08-11T18:59:22.912Z,4.32
2022-08-11T19:02:16.986Z,3.90
2022-08-11T19:05:08.968Z,4.00
2022-08-11T19:08:01.486Z,4.53
2022-08-11T19:10:53.098Z,3.85
2022-08-11T19:13:46.634Z,3.90
2022-08-11T19:16:42.599Z,4.15
2022-08-11T19:19:35.392Z,3.80
2022-08-11T19:22:28.651Z,4.07
2022-08-11T19:25:25.300Z,3.80
2022-08-11T19:28:17.574Z,3.63
2022-08-11T19:31:10.618Z,3.63
2022-08-11T19:34:09.811Z,3.80
2022-08-11T19:37:09.224Z,4.43
2022-08-11T19:40:02.366Z,3.50
2022-08-11T19:42:56.536Z,3.65
2022-08-11T19:45:52.458Z,4.10
2022-08-11T19:48:45.819Z,4.63
2022-08-11T19:54:29.238Z,6.20
2022-08-11T19:57:23.258Z,5.95
2022-08-11T20:00:13.868Z,11.00
2022-08-11T20:03:09.094Z,16.33
2022-08-11T20:06:02.602Z,18.00
2022-08-11T20:08:58.525Z,17.55
2022-08-11T20:11:53.237Z,15.93
2022-08-11T20:14:47.761Z,17.52
2022-08-11T20:17:41.382Z,17.42
2022-08-11T20:20:35.253Z,16.23
2022-08-11T20:23:30.484Z,16.65
2022-08-11T20:26:31.744Z,14.82
2022-08-11T20:29:24.228Z,13.85
2022-08-11T20:32:15.557Z,14.23
2022-08-11T20:35:07.355Z,14.68
2022-08-11T20:38:01.275Z,13.37
2022-08-11T20:40:52.720Z,13.13
2022-08-11T20:44:05.608Z,11.45
2022-08-11T20:46:58.126Z,12.00
2022-08-11T20:49:58.197Z,11.45
2022-08-11T20:52:51.792Z,10.98
2022-08-11T20:55:51.684Z,10.77
2022-08-11T21:01:56.912Z,10.57
2022-08-11T21:04:53.926Z,10.02
2022-08-11T21:07:56.856Z,9.32
2022-08-11T21:10:54.987Z,8.68
2022-08-11T21:13:54.206Z,9.27
2022-08-11T21:16:52.728Z,9.40
2022-08-11T21:19:55.038Z,9.05
2022-08-11T21:23:05.362Z,8.00
2022-08-11T21:26:05.828Z,8.40
2022-08-11T21:28:59.770Z,8.68
2022-08-11T21:31:54.037Z,8.50
2022-08-11T21:34:46.666Z,8.15
2022-08-11T21:37:39.475Z,8.45
2022-08-11T21:40:34.430Z,8.30
2022-08-11T21:43:27.519Z,7.75
2022-08-11T21:46:20.180Z,7.63
2022-08-11T21:52:06.819Z,8.07
2022-08-11T21:54:59.729Z,7.53
2022-08-11T21:57:51.271Z,7.75
2022-08-11T22:00:42.260Z,7.65
2022-08-11T22:03:49.298Z,7.50
2022-08-11T22:06:42.437Z,6.70
2022-08-11T22:09:33.437Z,7.30
2022-08-11T22:12:33.529Z,7.07
2022-08-11T22:15:27.813Z,6.85
2022-08-11T22:18:18.902Z,7.57
2022-08-11T22:21:10.251Z,7.72
2022-08-11T22:24:07.915Z,7.15
2022-08-11T22:27:00.793Z,7.85
2022-08-11T22:29:51.648Z,7.70
2022-08-11T22:32:42.759Z,7.63
2022-08-11T22:35:33.789Z,7.28
2022-08-11T22:38:25.354Z,7.85
2022-08-11T22:41:16.152Z,7.13
2022-08-11T22:44:06.804Z,7.40
2022-08-11T22:46:58.072Z,7.43
2022-08-11T22:49:57.410Z,7.25
2022-08-11T22:52:50.499Z,7.60
2022-08-11T22:55:42.980Z,7.20
2022-08-11T22:58:35.279Z,7.90
2022-08-11T23:01:26.252Z,7.18
2022-08-11T23:04:17.217Z,7.25
2022-08-11T23:07:09.882Z,7.05
2022-08-11T23:10:00.777Z,7.03
2022-08-11T23:12:52.855Z,6.68
2022-08-11T23:15:44.920Z,7.40
2022-08-11T23:18:38.046Z,6.93
2022-08-11T23:21:29.153Z,7.45
2022-08-11T23:24:23.215Z,7.82
2022-08-11T23:27:15.553Z,7.50
2022-08-11T23:30:07.952Z,7.83
2022-08-11T23:33:02.025Z,7.57
2022-08-11T23:35:57.882Z,8.07
2022-08-11T23:38:50.421Z,7.78
2022-08-11T23:41:42.463Z,8.10
2022-08-11T23:44:33.787Z,8.05
2022-08-11T23:47:26.011Z,7.72
2022-08-11T23:50:17.344Z,11.25
2022-08-11T23:53:08.736Z,13.02
2022-08-11T23:56:00.093Z,12.65
2022-08-11T23:58:52.081Z,14.77
